EDXW/GWT METAR and TAF weather

Enter ICAO airport designator
Station Type Date Time Source
EDXW METAR 2018/07/21 16:50 UTC NOAA

EDXW 211650Z 34011KT CAVOK 22/08 Q1012


Station Type Date Time Source
EDXW Decoded METAR 2018/07/21 16:50 UTC NOAA

Westerland / Sylt, Germany (EDXW) 54-55N 008-21E 20M
Jul 21, 2018 - 12:50 PM EDT / 2018.07.21 1650 UTC
Wind: from the NNW (340 degrees) at 13 MPH (11 KT):0
Visibility: greater than 7 mile(s):0
Temperature: 71 F (22 C)
Dew Point: 46 F (8 C)
Relative Humidity: 40%
Pressure (altimeter): 29.88 in. Hg (1012 hPa)
ob: EDXW 211650Z 34011KT CAVOK 22/08 Q1012
cycle: 17

Station Type Date Time Source
EDXW TAF 2009/07/07 14:00 UTC NOAA

TAF EDXW 071400Z 0715/0719 22015G25KT 9999 SCT020


Example: see airport list